createdAt,value
2018-05-19T00:03:49.694Z,21.30
2018-05-19T00:04:24.092Z,19.60
2018-05-19T00:05:24.271Z,24.20
2018-05-19T00:06:24.270Z,20.90
2018-05-19T00:07:24.150Z,18.10
2018-05-19T00:08:24.170Z,20.70
2018-05-19T00:09:24.136Z,20.40
2018-05-19T00:10:24.112Z,22.10
2018-05-19T00:11:24.117Z,22.70
2018-05-19T00:12:24.277Z,21.70
2018-05-19T00:13:24.217Z,23.00
2018-05-19T00:14:24.231Z,21.20
2018-05-19T00:15:24.183Z,20.20
2018-05-19T00:16:24.160Z,24.20
2018-05-19T00:17:24.091Z,24.60
2018-05-19T00:18:24.157Z,25.30
2018-05-19T00:19:24.225Z,22.10
2018-05-19T00:20:25.086Z,20.90
2018-05-19T00:21:24.204Z,22.10
2018-05-19T00:22:24.201Z,20.90
2018-05-19T00:23:24.421Z,23.90
2018-05-19T00:24:24.160Z,23.10
2018-05-19T00:25:24.170Z,20.40
2018-05-19T00:26:24.119Z,20.50
2018-05-19T00:27:24.256Z,24.40
2018-05-19T00:28:24.101Z,20.80
2018-05-19T00:29:24.080Z,20.80
2018-05-19T00:30:24.315Z,24.50
2018-05-19T00:31:24.185Z,23.60
2018-05-19T00:32:24.245Z,22.70
2018-05-19T00:33:24.159Z,23.60
2018-05-19T00:34:24.141Z,22.40
2018-05-19T00:35:24.133Z,23.90
2018-05-19T00:36:24.135Z,25.40
2018-05-19T00:37:24.280Z,23.80
2018-05-19T00:38:24.125Z,24.30
2018-05-19T00:39:24.417Z,22.00
2018-05-19T00:40:24.139Z,22.50
2018-05-19T00:41:24.220Z,20.90
2018-05-19T00:42:24.287Z,24.90
2018-05-19T00:43:24.363Z,19.70
2018-05-19T00:44:24.207Z,25.00
2018-05-19T00:45:24.257Z,22.30
2018-05-19T00:46:24.216Z,21.00
2018-05-19T00:47:24.323Z,20.90
2018-05-19T00:48:24.386Z,21.60
2018-05-19T00:49:24.325Z,24.20
2018-05-19T00:50:24.339Z,24.60
2018-05-19T00:51:24.413Z,23.80
2018-05-19T00:52:24.351Z,22.10
2018-05-19T00:53:24.256Z,21.60
2018-05-19T00:54:24.249Z,20.00
2018-05-19T00:55:24.395Z,21.40
2018-05-19T00:56:24.389Z,21.90
2018-05-19T00:57:24.127Z,24.40
2018-05-19T00:58:24.172Z,22.60
2018-05-19T00:59:24.350Z,22.30
2018-05-19T01:00:24.269Z,26.40
2018-05-19T01:01:24.169Z,23.30
2018-05-19T01:02:24.360Z,22.70
2018-05-19T01:03:24.234Z,25.50
2018-05-19T01:04:24.250Z,22.50
2018-05-19T01:05:24.339Z,25.20
2018-05-19T01:06:24.308Z,25.00
2018-05-19T01:07:24.189Z,22.30
2018-05-19T01:08:24.318Z,23.20
2018-05-19T01:09:24.372Z,26.00
2018-05-19T01:10:24.230Z,27.50
2018-05-19T01:11:24.841Z,23.50
2018-05-19T01:12:24.231Z,23.60
2018-05-19T01:13:24.183Z,23.70
2018-05-19T01:14:24.312Z,25.60
2018-05-19T01:15:24.340Z,25.70
2018-05-19T01:16:24.311Z,26.40
2018-05-19T01:17:24.203Z,27.50
2018-05-19T01:18:24.383Z,24.60
2018-05-19T01:19:24.228Z,23.50
2018-05-19T01:20:25.727Z,24.40
2018-05-19T01:21:24.363Z,25.80
2018-05-19T01:22:24.340Z,26.30
2018-05-19T01:23:24.405Z,27.40
2018-05-19T01:24:24.945Z,24.90
2018-05-19T01:25:24.169Z,26.90
2018-05-19T01:26:24.188Z,26.00
2018-05-19T01:27:24.369Z,25.40
2018-05-19T01:28:24.181Z,27.90
2018-05-19T01:29:24.294Z,26.10
2018-05-19T01:30:24.386Z,26.70
2018-05-19T01:31:24.297Z,25.50
2018-05-19T01:32:24.252Z,29.20
2018-05-19T01:33:24.242Z,24.70
2018-05-19T01:34:24.167Z,27.20
2018-05-19T01:35:24.266Z,26.60
2018-05-19T01:36:24.180Z,26.60
2018-05-19T01:37:24.241Z,26.10
2018-05-19T01:38:24.520Z,26.00
2018-05-19T01:39:24.359Z,27.80
2018-05-19T01:40:24.366Z,29.00
2018-05-19T01:41:24.252Z,28.80
2018-05-19T01:42:24.271Z,26.60
2018-05-19T01:43:24.374Z,34.00
2018-05-19T01:44:24.206Z,28.80
2018-05-19T01:45:24.617Z,27.50
2018-05-19T01:46:24.387Z,27.80
2018-05-19T01:47:24.324Z,28.10
2018-05-19T01:48:24.334Z,27.90
2018-05-19T01:49:24.325Z,30.50
2018-05-19T01:50:24.940Z,27.80
2018-05-19T01:51:24.270Z,29.00
2018-05-19T01:52:24.244Z,26.40
2018-05-19T01:53:24.209Z,26.90
2018-05-19T01:54:24.447Z,27.40
2018-05-19T01:55:24.244Z,26.10
2018-05-19T01:56:24.246Z,27.60
2018-05-19T01:57:24.274Z,27.80
2018-05-19T01:58:24.511Z,27.50
2018-05-19T01:59:24.403Z,27.20
2018-05-19T02:00:24.272Z,25.20
2018-05-19T02:01:24.318Z,28.50
2018-05-19T02:02:24.942Z,27.00
2018-05-19T02:03:24.191Z,29.40
2018-05-19T02:04:24.429Z,26.40
2018-05-19T02:05:24.326Z,28.10
2018-05-19T02:06:24.202Z,30.30
2018-05-19T02:07:24.306Z,29.40
2018-05-19T02:08:24.249Z,29.60
2018-05-19T02:09:24.382Z,30.60
2018-05-19T02:10:24.241Z,28.20
2018-05-19T02:11:24.269Z,28.00
2018-05-19T02:12:24.289Z,29.40
2018-05-19T02:13:24.429Z,30.70
2018-05-19T02:14:24.356Z,30.60
2018-05-19T02:15:24.510Z,27.80
2018-05-19T02:16:24.284Z,28.40
2018-05-19T02:17:24.398Z,28.50
2018-05-19T02:18:24.266Z,28.30
2018-05-19T02:19:24.350Z,28.70
2018-05-19T02:20:24.326Z,28.00
2018-05-19T02:21:24.359Z,29.30
2018-05-19T02:22:24.285Z,29.20
2018-05-19T02:23:24.192Z,30.40
2018-05-19T02:24:24.262Z,29.80
2018-05-19T02:25:24.256Z,31.60
2018-05-19T02:26:24.307Z,29.80
2018-05-19T02:27:24.474Z,28.30
2018-05-19T02:28:24.292Z,28.70
2018-05-19T02:29:24.236Z,28.70
2018-05-19T02:30:24.246Z,29.80
2018-05-19T02:31:24.396Z,29.30
2018-05-19T02:32:24.402Z,28.40
2018-05-19T02:33:24.276Z,29.20
2018-05-19T02:34:24.244Z,26.70
2018-05-19T02:35:24.488Z,27.10
2018-05-19T02:36:24.256Z,28.70
2018-05-19T02:37:24.343Z,29.50
2018-05-19T02:38:24.366Z,30.90
2018-05-19T02:39:24.324Z,27.60
2018-05-19T02:40:24.273Z,27.30
2018-05-19T02:41:24.554Z,30.40
2018-05-19T02:42:24.383Z,29.90
2018-05-19T02:43:24.440Z,27.30
2018-05-19T02:44:24.350Z,30.70
2018-05-19T02:45:24.385Z,30.20
2018-05-19T02:46:24.429Z,29.40
2018-05-19T02:47:24.382Z,27.60
2018-05-19T02:48:24.379Z,28.60
2018-05-19T02:49:24.388Z,28.20
2018-05-19T02:50:24.453Z,29.20
2018-05-19T02:51:24.533Z,28.60
2018-05-19T02:52:24.504Z,29.10
2018-05-19T02:53:24.261Z,29.40
2018-05-19T02:54:24.247Z,28.70
2018-05-19T02:55:24.338Z,29.90
2018-05-19T02:56:24.279Z,28.30
2018-05-19T02:57:24.279Z,29.20
2018-05-19T02:58:24.299Z,28.70
2018-05-19T02:59:24.420Z,29.50
2018-05-19T03:00:24.253Z,28.40
2018-05-19T03:01:24.781Z,27.10
2018-05-19T03:02:24.274Z,28.90
2018-05-19T03:18:59.247Z,27.80
2018-05-19T03:19:51.290Z,27.70
2018-05-19T03:20:50.387Z,29.50
2018-05-19T03:21:50.490Z,28.10
2018-05-19T03:22:50.640Z,27.50
2018-05-19T03:23:50.564Z,27.50
2018-05-19T03:24:50.514Z,26.80
2018-05-19T03:25:50.756Z,30.50
2018-05-19T03:26:50.463Z,27.80
2018-05-19T03:27:50.784Z,27.00
2018-05-19T03:28:51.226Z,27.50
2018-05-19T03:29:50.734Z,28.10
2018-05-19T03:30:51.184Z,28.50
2018-05-19T03:31:50.447Z,27.20
2018-05-19T03:32:50.613Z,28.70
2018-05-19T03:33:50.618Z,27.30
2018-05-19T03:34:50.578Z,27.70
2018-05-19T03:35:50.585Z,28.80
2018-05-19T03:36:50.453Z,29.00
2018-05-19T03:37:50.534Z,30.70
2018-05-19T03:38:50.539Z,29.90
2018-05-19T03:39:50.787Z,30.60
2018-05-19T03:40:50.512Z,32.20
2018-05-19T03:41:50.520Z,30.30
2018-05-19T03:42:50.557Z,30.10
2018-05-19T03:43:50.540Z,29.30
2018-05-19T03:44:50.493Z,30.50
2018-05-19T03:45:51.192Z,29.20
2018-05-19T03:46:50.763Z,29.90
2018-05-19T03:47:50.533Z,28.60
2018-05-19T03:48:50.857Z,30.70
2018-05-19T03:49:50.705Z,28.50
2018-05-19T03:50:50.624Z,29.10
2018-05-19T03:51:50.645Z,29.00
2018-05-19T03:52:50.730Z,30.00
2018-05-19T03:53:50.584Z,29.50
2018-05-19T03:54:50.470Z,28.50
2018-05-19T03:55:50.512Z,29.80
2018-05-19T03:56:50.531Z,34.80
2018-05-19T03:57:50.493Z,29.60
2018-05-19T03:58:50.607Z,29.30
2018-05-19T03:59:50.655Z,27.80
2018-05-19T04:00:50.545Z,29.90
2018-05-19T04:01:50.588Z,31.10
2018-05-19T04:02:50.567Z,29.60
2018-05-19T04:03:50.479Z,29.30
2018-05-19T04:04:50.876Z,29.60
2018-05-19T04:05:50.690Z,28.60
2018-05-19T04:06:50.496Z,28.90
2018-05-19T04:07:50.557Z,27.80
2018-05-19T04:08:50.679Z,28.80
2018-05-19T04:09:50.605Z,28.40
2018-05-19T04:10:50.630Z,28.50
2018-05-19T04:11:50.577Z,28.20
2018-05-19T04:12:50.673Z,28.80
2018-05-19T04:13:50.475Z,30.90
2018-05-19T04:14:50.604Z,28.20
2018-05-19T04:15:50.518Z,30.60
2018-05-19T04:16:50.586Z,28.30
2018-05-19T04:17:50.608Z,29.00
2018-05-19T04:18:50.433Z,29.20
2018-05-19T04:19:50.493Z,29.20
2018-05-19T04:20:50.449Z,27.60
2018-05-19T04:21:50.563Z,26.70
2018-05-19T04:22:50.638Z,27.00
2018-05-19T04:23:50.621Z,26.90
2018-05-19T04:24:50.546Z,26.80
2018-05-19T04:25:50.576Z,28.60
2018-05-19T04:26:50.614Z,26.80
2018-05-19T04:27:50.845Z,27.50
2018-05-19T04:28:50.567Z,27.30
2018-05-19T04:29:51.204Z,27.80
2018-05-19T04:30:50.562Z,28.50
2018-05-19T04:31:50.555Z,26.40
2018-05-19T04:32:50.563Z,25.90
2018-05-19T04:33:50.503Z,25.70
2018-05-19T04:34:51.084Z,26.70
2018-05-19T04:35:50.459Z,28.00
2018-05-19T04:36:50.554Z,28.00
2018-05-19T04:37:50.529Z,28.40
2018-05-19T04:38:50.674Z,27.20
2018-05-19T04:39:50.654Z,26.20
2018-05-19T04:40:50.706Z,27.10
2018-05-19T04:41:50.801Z,25.40
2018-05-19T04:42:50.565Z,26.50
2018-05-19T04:43:50.596Z,25.80
2018-05-19T04:44:50.588Z,26.80
2018-05-19T04:45:50.733Z,26.30
2018-05-19T04:46:51.012Z,26.70
2018-05-19T04:47:50.565Z,24.70
2018-05-19T04:48:50.540Z,24.40
2018-05-19T04:49:50.549Z,26.70
2018-05-19T04:50:50.690Z,25.20
2018-05-19T04:51:50.624Z,27.30
2018-05-19T04:52:50.468Z,28.50
2018-05-19T04:53:50.765Z,27.10
2018-05-19T04:54:50.807Z,24.60
2018-05-19T04:55:50.551Z,25.30
2018-05-19T04:56:50.588Z,28.30
2018-05-19T04:57:50.631Z,25.00
2018-05-19T04:58:50.591Z,27.30
2018-05-19T04:59:50.534Z,27.90
2018-05-19T05:00:50.576Z,26.00
2018-05-19T05:01:50.551Z,24.20
2018-05-19T05:02:50.644Z,25.20
2018-05-19T05:03:50.664Z,25.60
2018-05-19T05:04:50.639Z,25.40
2018-05-19T05:05:51.442Z,24.90
2018-05-19T05:06:50.530Z,25.20
2018-05-19T05:07:50.495Z,26.70
2018-05-19T05:08:50.558Z,25.60
2018-05-19T05:09:50.714Z,25.60
2018-05-19T05:10:50.532Z,24.00
2018-05-19T05:11:50.647Z,25.70
2018-05-19T05:12:50.580Z,36.60
2018-05-19T05:13:50.765Z,26.30
2018-05-19T05:14:50.784Z,25.30
2018-05-19T05:15:50.574Z,26.20
2018-05-19T05:16:50.984Z,27.60
2018-05-19T05:17:51.689Z,30.30
2018-05-19T05:18:50.592Z,24.00
2018-05-19T05:19:50.635Z,23.80
2018-05-19T05:20:50.526Z,27.80
2018-05-19T05:21:51.066Z,22.70
2018-05-19T05:22:50.563Z,25.30
2018-05-19T05:23:51.214Z,25.60
2018-05-19T05:24:50.748Z,23.20
2018-05-19T05:25:50.604Z,23.80
2018-05-19T05:26:50.675Z,24.30
2018-05-19T05:27:50.675Z,24.10
2018-05-19T05:28:50.715Z,23.30
2018-05-19T05:29:50.897Z,23.30
2018-05-19T05:30:50.719Z,23.20
2018-05-19T05:31:50.772Z,23.00
2018-05-19T05:32:50.789Z,23.60
2018-05-19T05:33:50.724Z,23.10
2018-05-19T05:34:50.764Z,21.60
2018-05-19T05:35:50.651Z,21.80
2018-05-19T05:36:50.609Z,22.00
2018-05-19T05:37:50.603Z,23.30
2018-05-19T05:38:50.749Z,20.60
2018-05-19T05:39:50.774Z,23.70
2018-05-19T05:40:50.714Z,19.70
2018-05-19T05:41:51.252Z,19.90
2018-05-19T05:42:50.673Z,19.80
2018-05-19T05:43:50.680Z,21.20
2018-05-19T05:44:50.683Z,20.10
2018-05-19T05:45:50.671Z,19.70
2018-05-19T05:46:50.786Z,20.80
2018-05-19T05:47:51.264Z,23.30
2018-05-19T05:48:51.239Z,27.30
2018-05-19T05:49:50.866Z,23.00
2018-05-19T05:50:51.370Z,21.70
2018-05-19T05:51:50.691Z,20.60
2018-05-19T05:52:50.643Z,20.60
2018-05-19T05:53:50.679Z,24.70
2018-05-19T05:54:50.740Z,24.10
2018-05-19T05:55:50.676Z,22.50
2018-05-19T05:56:50.893Z,22.10
2018-05-19T05:57:50.681Z,21.80
2018-05-19T05:58:50.880Z,21.00
2018-05-19T05:59:50.708Z,18.90
2018-05-19T06:00:51.018Z,21.90
2018-05-19T06:01:51.264Z,18.90
2018-05-19T06:02:50.660Z,18.80
2018-05-19T06:03:50.742Z,19.70
2018-05-19T06:04:50.625Z,19.70
2018-05-19T06:05:50.591Z,18.80
2018-05-19T06:06:50.731Z,19.00
2018-05-19T06:07:50.638Z,20.50
2018-05-19T06:08:50.690Z,23.90
2018-05-19T06:09:50.922Z,21.40
2018-05-19T06:10:50.606Z,21.30
2018-05-19T06:11:50.649Z,17.80
2018-05-19T06:12:50.646Z,17.40
2018-05-19T06:13:50.697Z,19.40
2018-05-19T06:14:50.625Z,17.70
2018-05-19T06:15:50.674Z,19.80
2018-05-19T06:16:50.897Z,17.30
2018-05-19T06:17:50.633Z,19.50
2018-05-19T06:18:50.792Z,16.90
2018-05-19T06:19:50.767Z,19.30
2018-05-19T06:20:50.880Z,19.80
2018-05-19T06:21:50.729Z,20.10
2018-05-19T06:22:50.880Z,16.90
2018-05-19T06:23:50.669Z,18.90
2018-05-19T06:24:50.901Z,19.50
2018-05-19T06:25:50.828Z,18.30
2018-05-19T06:26:50.753Z,16.30
2018-05-19T06:27:51.470Z,20.20
2018-05-19T06:28:50.712Z,16.50
2018-05-19T06:29:50.780Z,20.90
2018-05-19T06:30:51.036Z,17.90
2018-05-19T06:31:50.697Z,15.60
2018-05-19T06:32:50.872Z,17.50
2018-05-19T06:33:50.785Z,17.00
2018-05-19T06:34:50.885Z,16.60
2018-05-19T06:35:50.991Z,15.90
2018-05-19T06:36:51.079Z,17.70
2018-05-19T06:37:50.977Z,18.20
2018-05-19T06:38:51.807Z,17.50
2018-05-19T06:39:51.181Z,17.40
2018-05-19T06:40:50.792Z,18.10
2018-05-19T06:41:50.930Z,17.80
2018-05-19T06:42:50.782Z,19.90
2018-05-19T06:43:51.069Z,19.70
2018-05-19T06:44:50.785Z,19.20
2018-05-19T06:45:50.794Z,20.90
2018-05-19T06:46:50.700Z,17.80
2018-05-19T06:47:50.972Z,16.60
2018-05-19T06:48:51.078Z,17.50
2018-05-19T06:49:50.918Z,18.50
2018-05-19T06:50:51.871Z,18.10
2018-05-19T06:51:50.933Z,17.00
2018-05-19T06:52:50.888Z,19.90
2018-05-19T06:53:50.886Z,18.80
2018-05-19T06:54:50.849Z,19.90
2018-05-19T06:55:50.847Z,18.30
2018-05-19T06:56:50.878Z,18.40
2018-05-19T06:57:50.815Z,16.00
2018-05-19T06:58:51.154Z,22.20
2018-05-19T06:59:51.066Z,17.90
2018-05-19T07:00:50.893Z,18.80
2018-05-19T07:01:51.425Z,17.80
2018-05-19T07:02:50.972Z,18.10
2018-05-19T07:03:50.881Z,18.90
2018-05-19T07:04:51.040Z,21.80
2018-05-19T07:05:51.219Z,17.90
2018-05-19T07:06:50.880Z,19.70
2018-05-19T07:07:50.871Z,21.70
2018-05-19T07:08:50.892Z,20.70
2018-05-19T07:09:51.017Z,21.60
2018-05-19T07:10:50.895Z,17.70
2018-05-19T07:11:51.130Z,19.20
2018-05-19T07:12:50.785Z,18.00
2018-05-19T07:13:50.819Z,19.20
2018-05-19T07:14:50.832Z,18.60
2018-05-19T07:15:50.887Z,20.00
2018-05-19T07:16:50.941Z,20.50
2018-05-19T07:17:51.043Z,18.10
2018-05-19T07:18:50.888Z,16.90
2018-05-19T07:19:50.896Z,18.20
2018-05-19T07:20:50.892Z,17.80
2018-05-19T07:21:50.871Z,22.40
2018-05-19T07:22:51.031Z,22.40
2018-05-19T07:23:50.960Z,16.40
2018-05-19T07:24:51.337Z,17.20
2018-05-19T07:25:50.900Z,16.30
2018-05-19T07:26:51.021Z,15.50
2018-05-19T07:27:50.977Z,19.30
2018-05-19T07:28:50.996Z,17.40
2018-05-19T07:29:51.009Z,19.10
2018-05-19T07:30:51.073Z,18.50
2018-05-19T07:31:50.998Z,18.40
2018-05-19T07:32:50.895Z,16.90
2018-05-19T07:33:51.128Z,14.40
2018-05-19T07:34:51.210Z,16.20
2018-05-19T07:35:51.019Z,14.20
2018-05-19T07:36:51.153Z,18.00
2018-05-19T07:37:51.114Z,17.50
2018-05-19T07:38:51.464Z,16.20
2018-05-19T07:39:51.433Z,18.50
2018-05-19T07:40:51.202Z,17.20
2018-05-19T07:41:51.064Z,19.60
2018-05-19T07:42:51.044Z,15.90
2018-05-19T07:43:51.149Z,18.60
2018-05-19T07:44:51.140Z,18.40
2018-05-19T07:45:51.045Z,18.70
2018-05-19T07:46:53.942Z,20.40
2018-05-19T07:47:51.115Z,18.80
2018-05-19T07:48:51.055Z,19.90
2018-05-19T07:49:51.026Z,16.30
2018-05-19T07:50:51.204Z,19.10
2018-05-19T07:51:51.107Z,15.20
2018-05-19T07:52:51.796Z,16.80
2018-05-19T07:53:51.205Z,16.60
2018-05-19T07:54:50.991Z,18.20
2018-05-19T07:55:51.172Z,15.90
2018-05-19T07:56:51.208Z,17.30
2018-05-19T07:57:51.216Z,18.50
2018-05-19T07:58:51.310Z,15.70
2018-05-19T07:59:51.187Z,18.40
2018-05-19T08:00:51.141Z,19.30
2018-05-19T08:01:51.243Z,17.00
2018-05-19T08:02:51.255Z,20.80
2018-05-19T08:03:51.464Z,16.20
2018-05-19T08:04:51.294Z,16.90
2018-05-19T08:05:51.265Z,18.50
2018-05-19T08:06:51.241Z,18.80
2018-05-19T08:07:51.216Z,19.10
2018-05-19T08:08:51.272Z,18.70
2018-05-19T08:09:51.287Z,19.00
2018-05-19T08:10:51.336Z,17.40
2018-05-19T08:11:51.306Z,21.30
2018-05-19T08:12:51.285Z,17.10
2018-05-19T08:13:51.366Z,21.00
2018-05-19T08:14:51.387Z,18.40
2018-05-19T08:15:51.384Z,17.30
2018-05-19T08:16:51.436Z,17.20
2018-05-19T08:17:51.604Z,18.60
2018-05-19T08:18:51.546Z,20.50
2018-05-19T08:19:52.746Z,18.90
2018-05-19T08:20:51.565Z,21.40
2018-05-19T08:21:51.943Z,19.90
2018-05-19T08:22:52.439Z,20.50
2018-05-19T08:23:52.007Z,18.00
2018-05-19T08:24:53.714Z,18.60
2018-05-19T08:25:52.008Z,18.90
2018-05-19T08:26:52.290Z,18.30
2018-05-19T08:27:51.438Z,19.00
2018-05-19T08:28:51.888Z,19.80
2018-05-19T08:29:51.970Z,18.90
2018-05-19T08:30:52.170Z,20.80
2018-05-19T08:31:53.757Z,20.40
2018-05-19T08:32:51.748Z,19.70
2018-05-19T08:33:51.589Z,21.90
2018-05-19T08:34:52.444Z,20.10
2018-05-19T08:35:51.733Z,21.70
2018-05-19T08:36:51.740Z,20.10
2018-05-19T08:37:52.008Z,17.40
2018-05-19T08:38:51.869Z,18.20
2018-05-19T08:39:51.628Z,21.00
2018-05-19T08:40:52.361Z,20.50
2018-05-19T08:41:51.949Z,19.00
2018-05-19T08:42:52.090Z,15.80
2018-05-19T08:43:52.205Z,17.70
2018-05-19T08:44:52.461Z,16.20
2018-05-19T08:45:53.046Z,15.90
2018-05-19T08:46:52.855Z,17.40
2018-05-19T08:47:51.835Z,19.50
2018-05-19T08:48:51.883Z,17.40
2018-05-19T08:49:52.361Z,17.20
2018-05-19T08:50:52.112Z,16.50
2018-05-19T08:51:51.825Z,19.10
2018-05-19T08:52:52.078Z,18.10
2018-05-19T08:53:52.842Z,17.60
2018-05-19T08:54:51.681Z,19.30
2018-05-19T08:55:51.750Z,19.90
2018-05-19T08:56:51.906Z,16.80
2018-05-19T08:57:51.781Z,16.90
2018-05-19T08:58:52.115Z,20.30
2018-05-19T08:59:51.947Z,19.30
2018-05-19T09:00:51.902Z,21.10
2018-05-19T09:01:52.008Z,21.50
2018-05-19T09:02:52.003Z,20.00
2018-05-19T09:03:51.886Z,18.90
2018-05-19T09:04:52.735Z,18.20
2018-05-19T09:05:52.122Z,17.60
2018-05-19T09:06:52.855Z,20.00
2018-05-19T09:07:52.416Z,19.10
2018-05-19T09:08:52.048Z,19.60
2018-05-19T09:09:52.136Z,17.90
2018-05-19T09:10:52.161Z,20.40
2018-05-19T09:11:52.107Z,18.00
2018-05-19T09:12:51.975Z,18.30
2018-05-19T09:13:52.095Z,19.20
2018-05-19T09:14:51.937Z,16.50
2018-05-19T09:15:52.019Z,17.30
2018-05-19T09:16:51.945Z,18.30
2018-05-19T09:17:51.988Z,15.10
2018-05-19T09:18:52.116Z,14.40
2018-05-19T09:19:52.149Z,19.40
2018-05-19T09:20:52.152Z,17.60
2018-05-19T09:21:52.122Z,18.30
2018-05-19T09:22:52.087Z,17.70
2018-05-19T09:23:52.260Z,16.90
2018-05-19T09:24:52.309Z,20.80
2018-05-19T09:25:52.838Z,18.60
2018-05-19T09:26:52.087Z,17.40
2018-05-19T09:27:52.103Z,17.90
2018-05-19T09:28:52.138Z,16.90
2018-05-19T09:29:52.209Z,18.50
2018-05-19T09:30:52.199Z,19.90
2018-05-19T09:31:52.126Z,19.50
2018-05-19T09:32:52.163Z,17.00
2018-05-19T09:33:52.219Z,16.80
2018-05-19T09:34:52.235Z,18.40
2018-05-19T09:35:52.364Z,21.40
2018-05-19T09:36:52.354Z,20.20
2018-05-19T09:37:52.196Z,20.10
2018-05-19T09:38:52.268Z,21.70
2018-05-19T09:39:52.229Z,19.50
2018-05-19T09:40:52.339Z,18.40
2018-05-19T09:41:52.248Z,22.90
2018-05-19T09:42:52.457Z,18.80
2018-05-19T09:43:52.336Z,20.80
2018-05-19T09:44:52.300Z,20.20
2018-05-19T09:45:52.338Z,20.60
2018-05-19T09:46:52.315Z,23.30
2018-05-19T09:47:52.372Z,18.70
2018-05-19T09:48:52.467Z,19.50
2018-05-19T09:49:52.337Z,17.80
2018-05-19T09:50:52.439Z,19.90
2018-05-19T09:51:52.453Z,18.30
2018-05-19T09:52:52.377Z,20.30
2018-05-19T09:53:52.424Z,19.50
2018-05-19T09:54:52.422Z,17.70
2018-05-19T09:55:52.382Z,18.90
2018-05-19T09:56:52.362Z,19.20
2018-05-19T09:57:52.842Z,18.60
2018-05-19T09:58:52.487Z,20.90
2018-05-19T09:59:52.511Z,20.20
2018-05-19T10:00:52.464Z,20.60
2018-05-19T10:01:52.488Z,19.20
2018-05-19T10:02:52.552Z,19.10
2018-05-19T10:03:52.519Z,18.30
2018-05-19T10:04:52.601Z,19.80
2018-05-19T10:05:52.651Z,19.80
2018-05-19T10:06:52.634Z,20.30
2018-05-19T10:07:52.524Z,20.90
2018-05-19T10:08:52.612Z,19.60
2018-05-19T10:09:52.724Z,18.00
2018-05-19T10:10:52.635Z,19.40
2018-05-19T10:11:52.778Z,21.50
2018-05-19T10:12:52.658Z,21.00
2018-05-19T10:13:52.695Z,18.30
2018-05-19T10:14:52.557Z,20.00
2018-05-19T10:15:52.660Z,21.20
2018-05-19T10:16:52.726Z,21.90
2018-05-19T10:17:52.677Z,19.70
2018-05-19T10:18:52.648Z,20.50
2018-05-19T10:19:52.648Z,19.60
2018-05-19T10:20:52.743Z,23.50
2018-05-19T10:21:52.676Z,19.20
2018-05-19T10:22:52.818Z,21.10
2018-05-19T10:23:52.647Z,21.80
2018-05-19T10:24:52.671Z,18.60
2018-05-19T10:25:52.754Z,19.90
2018-05-19T10:26:52.721Z,19.10
2018-05-19T10:27:52.734Z,20.70
2018-05-19T10:28:52.875Z,20.50
2018-05-19T10:29:52.711Z,22.60
2018-05-19T10:30:52.676Z,23.20
2018-05-19T10:31:52.852Z,23.50
2018-05-19T10:32:52.858Z,19.70
2018-05-19T10:33:52.777Z,19.10
2018-05-19T10:34:53.082Z,20.40
2018-05-19T10:35:52.781Z,21.20
2018-05-19T10:36:52.869Z,20.70
2018-05-19T10:37:52.810Z,20.40
2018-05-19T10:38:52.768Z,20.00
2018-05-19T10:39:52.831Z,20.20
2018-05-19T10:40:52.883Z,19.10
2018-05-19T10:41:52.895Z,22.10
2018-05-19T10:42:52.924Z,21.00
2018-05-19T10:43:53.036Z,19.90
2018-05-19T10:44:52.926Z,20.70
2018-05-19T10:45:52.841Z,21.40
2018-05-19T10:46:53.100Z,21.90
2018-05-19T10:47:52.842Z,21.00
2018-05-19T10:48:52.954Z,21.60
2018-05-19T10:49:52.941Z,20.90
2018-05-19T10:50:53.076Z,26.20
2018-05-19T10:51:52.897Z,20.30
2018-05-19T10:52:53.115Z,20.60
2018-05-19T10:53:53.019Z,19.20
2018-05-19T10:54:53.009Z,18.20
2018-05-19T10:55:53.009Z,18.60
2018-05-19T10:56:53.375Z,19.90
2018-05-19T10:57:53.066Z,17.60
2018-05-19T10:58:52.986Z,19.50
2018-05-19T10:59:52.978Z,21.40
2018-05-19T11:00:52.937Z,19.60
2018-05-19T11:01:53.070Z,20.20
2018-05-19T11:02:52.966Z,19.90
2018-05-19T11:03:53.022Z,20.70
2018-05-19T11:04:53.123Z,19.40
2018-05-19T11:05:53.080Z,24.00
2018-05-19T11:06:53.028Z,19.40
2018-05-19T11:07:53.133Z,20.80
2018-05-19T11:08:53.096Z,18.90
2018-05-19T11:09:53.281Z,20.00
2018-05-19T11:10:53.032Z,19.70
2018-05-19T11:11:52.983Z,18.80
2018-05-19T11:12:53.042Z,20.50
2018-05-19T11:13:53.037Z,19.20
2018-05-19T11:14:53.099Z,22.50
2018-05-19T11:15:53.167Z,20.30
2018-05-19T11:16:53.111Z,21.80
2018-05-19T11:17:53.100Z,21.30
2018-05-19T11:18:53.248Z,24.60
2018-05-19T11:19:53.232Z,20.30
2018-05-19T11:20:53.081Z,20.20
2018-05-19T11:21:53.328Z,18.20
2018-05-19T11:22:53.156Z,19.90
2018-05-19T11:23:53.134Z,20.20
2018-05-19T11:24:53.889Z,19.30
2018-05-19T11:25:53.224Z,20.80
2018-05-19T11:26:53.152Z,19.50
2018-05-19T11:27:53.113Z,19.20
2018-05-19T11:28:53.154Z,19.40
2018-05-19T11:29:53.223Z,20.40
2018-05-19T11:30:53.210Z,21.30
2018-05-19T11:31:53.165Z,18.60
2018-05-19T11:32:53.263Z,18.70
2018-05-19T11:33:53.152Z,19.60
2018-05-19T11:34:53.897Z,18.10
2018-05-19T11:35:53.215Z,18.20
2018-05-19T11:36:53.159Z,19.80
2018-05-19T11:37:53.241Z,21.50
2018-05-19T11:38:53.147Z,17.70
2018-05-19T11:39:53.344Z,19.40
2018-05-19T11:40:53.259Z,19.00
2018-05-19T11:41:53.307Z,18.90
2018-05-19T11:42:53.396Z,19.20
2018-05-19T11:43:53.247Z,17.80
2018-05-19T11:44:53.289Z,17.80
2018-05-19T11:45:53.453Z,20.90
2018-05-19T11:46:53.485Z,18.30
2018-05-19T11:47:53.357Z,18.20
2018-05-19T11:48:53.474Z,19.80
2018-05-19T11:49:53.462Z,17.40
2018-05-19T11:50:53.308Z,19.10
2018-05-19T11:51:53.282Z,17.40
2018-05-19T11:52:53.254Z,17.50
2018-05-19T11:53:53.345Z,17.70
2018-05-19T11:54:53.315Z,16.50
2018-05-19T11:55:53.394Z,18.90
2018-05-19T11:56:53.480Z,17.40
2018-05-19T11:57:53.351Z,19.40
2018-05-19T11:58:53.303Z,20.40
2018-05-19T12:01:29.014Z,19.10
2018-05-19T12:02:25.971Z,18.50
2018-05-19T12:03:25.759Z,19.70
2018-05-19T12:04:25.743Z,19.60
2018-05-19T12:05:25.758Z,20.40
2018-05-19T12:06:25.909Z,20.40
2018-05-19T12:07:25.777Z,17.80
2018-05-19T12:08:25.999Z,18.10
2018-05-19T12:09:25.834Z,20.00
2018-05-19T12:10:26.368Z,18.30
2018-05-19T12:11:25.937Z,19.30
2018-05-19T12:12:25.927Z,20.00
2018-05-19T12:13:27.361Z,17.80
2018-05-19T12:14:25.834Z,19.20
2018-05-19T12:15:25.883Z,19.80
2018-05-19T12:16:25.970Z,20.60
2018-05-19T12:17:25.900Z,18.30
2018-05-19T12:18:25.871Z,21.30
2018-05-19T12:19:25.867Z,17.80
2018-05-19T12:20:25.982Z,19.40
2018-05-19T12:21:25.873Z,19.50
2018-05-19T12:22:25.949Z,20.10
2018-05-19T12:23:25.862Z,21.00
2018-05-19T12:24:25.922Z,19.90
2018-05-19T12:25:25.932Z,20.80
2018-05-19T12:26:25.951Z,18.00
2018-05-19T12:27:25.946Z,16.70
2018-05-19T12:28:25.922Z,18.50
2018-05-19T12:29:25.965Z,17.90
2018-05-19T12:30:25.981Z,21.60
2018-05-19T12:31:25.999Z,19.40
2018-05-19T12:32:26.009Z,19.90
2018-05-19T12:33:26.368Z,19.50
2018-05-19T12:34:26.104Z,19.90
2018-05-19T12:35:26.077Z,20.20
2018-05-19T12:36:26.003Z,19.50
2018-05-19T12:37:26.015Z,19.00
2018-05-19T12:38:26.028Z,19.30
2018-05-19T12:39:25.989Z,19.10
2018-05-19T12:40:25.921Z,19.50
2018-05-19T12:41:26.118Z,19.60
2018-05-19T12:42:25.967Z,21.20
2018-05-19T12:43:26.105Z,19.10
2018-05-19T12:44:26.196Z,18.80
2018-05-19T12:45:26.082Z,19.20
2018-05-19T12:46:26.093Z,20.30
2018-05-19T12:47:26.137Z,19.10
2018-05-19T12:48:26.017Z,18.30
2018-05-19T12:49:26.086Z,19.80
2018-05-19T12:50:26.037Z,20.80
2018-05-19T12:51:26.009Z,18.50
2018-05-19T12:52:26.052Z,18.50
2018-05-19T12:53:26.095Z,21.10
2018-05-19T12:54:26.084Z,19.90
2018-05-19T12:55:26.044Z,19.70
2018-05-19T12:56:26.046Z,19.10
2018-05-19T12:57:26.306Z,17.70
2018-05-19T12:58:26.068Z,19.40
2018-05-19T12:59:26.033Z,17.90
2018-05-19T13:00:26.087Z,21.00
2018-05-19T13:01:26.076Z,18.60
2018-05-19T13:02:26.040Z,19.30
2018-05-19T13:03:26.073Z,17.80
2018-05-19T13:04:26.068Z,18.70
2018-05-19T13:05:26.091Z,19.00
2018-05-19T13:06:26.113Z,19.10
2018-05-19T13:07:26.096Z,19.50
2018-05-19T13:08:26.124Z,17.40
2018-05-19T13:09:26.135Z,19.10
2018-05-19T13:10:26.098Z,17.30
2018-05-19T13:11:26.115Z,19.00
2018-05-19T13:12:26.137Z,18.80